Time;durP1;ratioP1;P1;durP2;ratioP2;P2;SDS_P1;SDS_P2;PMS_P1;PMS_P2;Temp;Humidity;BMP_temperature;BMP_pressure;BME280_temperature;BME280_humidity;BME280_pressure;Samples;Min_cycle;Max_cycle;Signal;HPM_P1;HPM_P2
2021/03/13 00:01:35;;;;;;;1.33;1.17;;;6.90;44.60;;;;;;5036312;28;20217;-83
2021/03/13 00:04:02;;;;;;;2.17;1.00;;;7.00;44.00;;;;;;5035877;28;20206;-86
2021/03/13 00:06:28;;;;;;;1.50;1.20;;;7.10;43.30;;;;;;5032697;28;20304;-85
2021/03/13 00:08:58;;;;;;;2.63;1.00;;;7.10;43.40;;;;;;5031789;28;20224;-82
2021/03/13 00:11:24;;;;;;;2.70;1.20;;;7.10;43.50;;;;;;5052150;28;20209;-81
2021/03/13 00:13:51;;;;;;;1.77;1.00;;;7.10;43.20;;;;;;5037827;28;20573;-82
2021/03/13 00:16:18;;;;;;;1.20;1.10;;;7.10;43.90;;;;;;5044192;28;20693;-83
2021/03/13 00:18:44;;;;;;;2.70;1.30;;;7.00;45.20;;;;;;5037672;28;20229;-88
2021/03/13 00:21:11;;;;;;;3.23;1.40;;;7.10;43.30;;;;;;5042617;28;20196;-86
2021/03/13 00:23:37;;;;;;;1.60;0.97;;;7.10;43.10;;;;;;5050922;28;20209;-84
2021/03/13 00:26:04;;;;;;;0.80;0.73;;;7.10;42.50;;;;;;5023508;28;20206;-82
2021/03/13 00:28:30;;;;;;;1.97;1.00;;;7.20;42.80;;;;;;5029023;28;20232;-83
2021/03/13 00:30:57;;;;;;;3.30;1.03;;;7.20;43.20;;;;;;5045941;28;20205;-87
2021/03/13 00:33:43;;;;;;;2.03;1.20;;;7.20;44.30;;;;;;5055398;28;20230;-82
2021/03/13 00:36:11;;;;;;;2.17;1.13;;;7.30;42.70;;;;;;5040407;28;20240;-82
2021/03/13 00:38:37;;;;;;;1.50;1.00;;;7.40;42.50;;;;;;5057799;28;20637;-84
2021/03/13 00:41:04;;;;;;;2.80;0.90;;;7.30;42.70;;;;;;5053489;28;20228;-82
2021/03/13 00:43:32;;;;;;;3.23;1.13;;;7.40;42.80;;;;;;5060449;28;20466;-85
2021/03/13 00:45:59;;;;;;;1.30;0.80;;;7.50;42.40;;;;;;5057405;28;20202;-82
2021/03/13 00:48:25;;;;;;;1.53;1.03;;;7.60;41.60;;;;;;5057570;28;20244;-86
2021/03/13 00:50:52;;;;;;;1.80;0.83;;;7.60;42.20;;;;;;5053449;28;20598;-87
2021/03/13 00:53:19;;;;;;;4.10;0.80;;;7.60;42.30;;;;;;5045843;28;20251;-84
2021/03/13 00:55:45;;;;;;;1.80;0.90;;;7.60;42.30;;;;;;5060453;28;20649;-84
2021/03/13 00:58:12;;;;;;;1.93;1.20;;;7.50;42.90;;;;;;5052754;28;20225;-84
2021/03/13 01:00:39;;;;;;;1.27;0.87;;;7.40;43.00;;;;;;5047228;28;20249;-83
2021/03/13 01:03:07;;;;;;;2.37;1.03;;;7.40;42.90;;;;;;5050075;28;20230;-81
2021/03/13 01:05:34;;;;;;;2.10;0.87;;;7.50;42.90;;;;;;5051663;28;20741;-84
2021/03/13 01:08:01;;;;;;;2.77;1.10;;;7.50;42.90;;;;;;5050913;28;20228;-81
2021/03/13 01:10:31;;;;;;;1.30;1.00;;;7.40;43.60;;;;;;5056419;28;20212;-81
2021/03/13 01:12:57;;;;;;;3.20;0.87;;;7.40;44.10;;;;;;5047209;28;20230;-86
2021/03/13 01:15:25;;;;;;;2.20;1.10;;;7.30;44.00;;;;;;5043383;28;20652;-85
2021/03/13 01:17:51;;;;;;;3.03;1.07;;;7.10;45.10;;;;;;5056553;28;20707;-83
2021/03/13 01:20:19;;;;;;;1.13;0.77;;;7.20;43.60;;;;;;5056714;28;20280;-83
2021/03/13 01:22:46;;;;;;;1.87;0.80;;;7.20;43.50;;;;;;5058051;28;20228;-83
2021/03/13 01:25:14;;;;;;;5.40;1.03;;;7.30;44.10;;;;;;5047223;28;20205;-83
2021/03/13 01:27:42;;;;;;;3.23;1.13;;;7.20;43.00;;;;;;5020741;28;20774;-83
2021/03/13 01:30:10;;;;;;;2.03;0.90;;;7.20;44.00;;;;;;5048349;28;20708;-84
2021/03/13 01:32:38;;;;;;;2.37;0.83;;;7.20;44.40;;;;;;5055742;28;20278;-83
2021/03/13 01:35:06;;;;;;;1.47;0.90;;;7.20;43.50;;;;;;5051855;28;20618;-80
2021/03/13 01:37:32;;;;;;;0.90;0.70;;;7.20;43.80;;;;;;5044284;28;20234;-83
2021/03/13 01:40:14;;;;;;;1.67;0.77;;;7.10;44.50;;;;;;5051445;28;20189;-83
2021/03/13 01:42:43;;;;;;;1.10;1.00;;;7.00;44.80;;;;;;5057856;28;20696;-82
2021/03/13 01:45:10;;;;;;;1.17;0.73;;;7.00;44.80;;;;;;5061516;28;20523;-83
2021/03/13 01:47:38;;;;;;;2.10;0.80;;;7.10;43.80;;;;;;5045039;28;20229;-83
2021/03/13 01:50:06;;;;;;;2.20;0.90;;;7.00;45.60;;;;;;5049558;28;20292;-88
2021/03/13 01:52:33;;;;;;;2.00;0.67;;;7.10;44.30;;;;;;5052500;28;20332;-81
2021/03/13 01:55:01;;;;;;;1.77;1.07;;;7.10;44.80;;;;;;5020065;28;20645;-86
2021/03/13 01:57:28;;;;;;;1.40;0.90;;;7.20;44.60;;;;;;5037520;28;20229;-83
2021/03/13 01:59:56;;;;;;;2.70;0.70;;;7.20;44.20;;;;;;5038429;28;20206;-82
2021/03/13 02:02:22;;;;;;;1.93;0.90;;;7.10;45.00;;;;;;5000849;28;20319;-82
2021/03/13 02:04:49;;;;;;;0.80;0.80;;;7.10;45.30;;;;;;5056490;28;20209;-88
2021/03/13 02:07:22;;;;;;;1.97;1.17;;;7.20;43.90;;;;;;5052944;28;20253;-86
2021/03/13 02:10:00;;;;;;;1.43;0.90;;;7.20;44.90;;;;;;5050857;28;20224;-83
2021/03/13 02:12:40;;;;;;;1.37;0.93;;;7.20;45.10;;;;;;5049811;28;20234;-83
2021/03/13 02:15:15;;;;;;;1.23;1.00;;;7.10;45.00;;;;;;5054900;28;20279;-84
2021/03/13 02:17:49;;;;;;;1.80;0.97;;;7.20;44.10;;;;;;5055521;28;20229;-87
2021/03/13 02:20:41;;;;;;;1.77;0.93;;;7.30;44.70;;;;;;5029001;28;20193;-84
2021/03/13 02:23:09;;;;;;;2.37;0.90;;;7.20;45.90;;;;;;5044348;28;20742;-83
2021/03/13 02:25:44;;;;;;;1.73;1.00;;;7.20;46.10;;;;;;5039661;28;20213;-81
2021/03/13 02:28:18;;;;;;;3.10;0.80;;;7.30;46.10;;;;;;5053026;28;20232;-82
2021/03/13 02:30:46;;;;;;;2.17;0.93;;;7.40;46.20;;;;;;5051579;28;20251;-83
2021/03/13 02:33:23;;;;;;;8.80;1.30;;;7.40;46.20;;;;;;5050673;28;20234;-82
2021/03/13 02:35:54;;;;;;;6.70;1.10;;;7.50;46.30;;;;;;5050160;28;20660;-87
2021/03/13 02:38:25;;;;;;;5.23;1.10;;;7.50;46.30;;;;;;5047627;28;20221;-85
2021/03/13 02:40:54;;;;;;;1.00;0.90;;;7.50;46.30;;;;;;5053147;28;20626;-83
2021/03/13 02:43:21;;;;;;;1.90;1.20;;;7.40;46.20;;;;;;5043782;28;20229;-82
2021/03/13 02:45:54;;;;;;;3.20;0.90;;;7.30;47.10;;;;;;5052564;28;20295;-84
2021/03/13 02:48:21;;;;;;;3.30;1.07;;;7.30;48.10;;;;;;5050076;28;20264;-81
2021/03/13 02:50:50;;;;;;;2.87;0.90;;;7.20;48.20;;;;;;5046267;28;20830;-82
2021/03/13 02:53:17;;;;;;;2.37;1.13;;;7.30;50.00;;;;;;5047024;28;20230;-83
2021/03/13 02:55:44;;;;;;;1.83;0.93;;;7.30;48.40;;;;;;5038313;28;20209;-82
2021/03/13 02:58:11;;;;;;;1.17;0.80;;;7.10;49.40;;;;;;5011499;28;20228;-86
2021/03/13 03:00:41;;;;;;;1.43;1.10;;;7.10;50.00;;;;;;5054452;28;20220;-85
2021/03/13 03:03:10;;;;;;;1.40;0.90;;;7.00;50.50;;;;;;5035771;28;20581;-82
2021/03/13 03:05:37;;;;;;;1.70;0.93;;;6.90;50.90;;;;;;5043202;28;20536;-82
2021/03/13 03:08:05;;;;;;;1.57;1.00;;;6.90;51.20;;;;;;5046680;28;20763;-82
2021/03/13 03:10:35;;;;;;;2.00;0.90;;;6.90;50.70;;;;;;5045761;28;20200;-91
2021/03/13 03:13:02;;;;;;;2.60;0.90;;;6.90;50.50;;;;;;5043455;28;20722;-84
2021/03/13 03:15:31;;;;;;;1.87;0.90;;;6.80;51.70;;;;;;5054259;28;20201;-82
2021/03/13 03:17:59;;;;;;;1.07;0.90;;;6.80;50.90;;;;;;5054658;28;20278;-82
2021/03/13 03:20:28;;;;;;;2.83;1.20;;;6.80;51.30;;;;;;5050342;28;20202;-83
2021/03/13 03:22:55;;;;;;;2.53;0.80;;;6.70;52.00;;;;;;5055618;28;20560;-84
2021/03/13 03:25:22;;;;;;;4.00;1.07;;;6.70;53.20;;;;;;5048940;28;20204;-88
2021/03/13 03:27:53;;;;;;;2.00;0.90;;;6.70;53.50;;;;;;5055301;28;20234;-82
2021/03/13 03:30:21;;;;;;;2.67;1.10;;;6.70;53.50;;;;;;5050069;28;20206;-82
2021/03/13 03:32:48;;;;;;;2.17;1.00;;;6.80;53.40;;;;;;5057568;28;20232;-83
2021/03/13 03:35:16;;;;;;;0.90;0.90;;;6.90;53.40;;;;;;5048115;28;20255;-82
2021/03/13 03:37:44;;;;;;;1.50;0.90;;;6.80;54.20;;;;;;5053289;28;20689;-85
2021/03/13 03:40:14;;;;;;;2.80;1.10;;;6.70;55.20;;;;;;5041274;28;20707;-88
2021/03/13 03:42:44;;;;;;;1.50;0.87;;;6.60;55.20;;;;;;5054951;28;20300;-82
2021/03/13 03:45:12;;;;;;;3.43;0.93;;;6.60;55.90;;;;;;5047186;28;20190;-84
2021/03/13 03:47:40;;;;;;;1.50;0.80;;;6.60;55.90;;;;;;5047246;28;20241;-83
2021/03/13 03:50:09;;;;;;;1.00;0.90;;;6.70;55.70;;;;;;5041035;28;20596;-84
2021/03/13 03:52:36;;;;;;;1.47;0.90;;;6.70;55.30;;;;;;5057332;28;20230;-83
2021/03/13 03:55:04;;;;;;;3.20;1.23;;;6.80;55.30;;;;;;5035026;28;20201;-85
2021/03/13 03:57:31;;;;;;;1.23;0.90;;;6.70;56.10;;;;;;5018095;28;20230;-82
2021/03/13 04:00:00;;;;;;;1.57;0.80;;;6.70;56.10;;;;;;5049141;28;20213;-82
2021/03/13 04:02:29;;;;;;;1.40;0.87;;;6.60;56.70;;;;;;5049844;28;20240;-82
2021/03/13 04:04:56;;;;;;;1.47;1.00;;;6.70;56.50;;;;;;5051055;28;20277;-82
2021/03/13 04:07:22;;;;;;;2.47;1.00;;;6.60;56.90;;;;;;5047197;28;20221;-82
2021/03/13 04:09:52;;;;;;;3.53;1.00;;;6.50;58.00;;;;;;5050587;28;20225;-83
2021/03/13 04:12:21;;;;;;;2.93;1.13;;;6.50;57.30;;;;;;5033954;28;20235;-84
2021/03/13 04:14:48;;;;;;;1.33;1.10;;;6.50;57.60;;;;;;5050900;28;20201;-81
2021/03/13 04:17:15;;;;;;;2.00;0.70;;;6.40;57.70;;;;;;5056516;28;20235;-83
2021/03/13 04:19:43;;;;;;;1.63;0.93;;;6.50;57.30;;;;;;5051014;28;20209;-83
2021/03/13 04:22:09;;;;;;;1.67;0.80;;;6.50;58.30;;;;;;5050623;28;20277;-86
2021/03/13 04:24:39;;;;;;;1.20;0.93;;;6.60;57.00;;;;;;5051514;28;20201;-82
2021/03/13 04:27:06;;;;;;;1.67;0.90;;;6.60;57.30;;;;;;5036632;28;20236;-83
2021/03/13 04:29:33;;;;;;;1.93;0.90;;;6.70;57.40;;;;;;5045809;28;20218;-82
2021/03/13 04:32:01;;;;;;;1.50;0.93;;;6.80;56.40;;;;;;5049147;28;20568;-81
2021/03/13 04:34:31;;;;;;;3.57;1.40;;;6.70;56.90;;;;;;5044824;28;20207;-83
2021/03/13 04:36:58;;;;;;;1.10;0.70;;;6.60;57.70;;;;;;5051022;28;20249;-81
2021/03/13 04:39:25;;;;;;;2.00;0.80;;;6.60;57.50;;;;;;5050370;28;20233;-82
2021/03/13 04:45:15;;;;;;;1.80;0.70;;;6.50;58.70;;;;;;5053999;28;20170;-81
2021/03/13 04:47:44;;;;;;;0.93;0.70;;;6.50;58.70;;;;;;5046846;28;20223;-81
2021/03/13 04:50:13;;;;;;;1.83;0.70;;;6.50;59.20;;;;;;5033845;28;20290;-81
2021/03/13 04:52:39;;;;;;;1.80;0.67;;;6.50;59.20;;;;;;5033811;28;20234;-81
2021/03/13 04:55:28;;;;;;;1.70;0.73;;;6.50;59.00;;;;;;5033753;28;20203;-82
2021/03/13 04:57:55;;;;;;;3.07;0.80;;;6.40;59.90;;;;;;5033160;28;20690;-81
2021/03/13 05:00:23;;;;;;;1.80;0.87;;;6.40;59.20;;;;;;5034672;28;20201;-81
2021/03/13 05:02:50;;;;;;;1.17;0.60;;;6.60;57.90;;;;;;5033184;28;20231;-82
2021/03/13 05:08:40;;;;;;;1.70;0.90;;;6.80;56.90;;;;;;5062055;28;20236;-81
2021/03/13 05:11:06;;;;;;;0.90;0.70;;;6.80;56.50;;;;;;5054248;28;20194;-81
2021/03/13 05:13:32;;;;;;;0.73;0.53;;;6.80;56.80;;;;;;5052106;28;20298;-81
2021/03/13 05:16:00;;;;;;;0.77;0.63;;;6.80;56.20;;;;;;5052865;28;20198;-82
2021/03/13 05:18:26;;;;;;;2.23;0.80;;;6.80;56.60;;;;;;5053542;28;20226;-81
2021/03/13 05:20:52;;;;;;;2.40;0.70;;;6.80;56.40;;;;;;5053192;28;20198;-81
2021/03/13 05:23:19;;;;;;;1.40;0.67;;;6.90;54.20;;;;;;5046504;28;20225;-81
2021/03/13 05:25:45;;;;;;;2.27;1.00;;;6.90;54.20;;;;;;5033606;28;20221;-82
2021/03/13 05:28:12;;;;;;;2.90;1.20;;;6.90;54.10;;;;;;5032518;28;20226;-81
2021/03/13 05:30:39;;;;;;;4.50;0.83;;;6.90;53.90;;;;;;5036537;28;20214;-81
2021/03/13 05:36:28;;;;;;;0.97;0.77;;;7.10;52.80;;;;;;5038369;28;20162;-81
2021/03/13 05:38:54;;;;;;;1.43;0.90;;;7.00;52.70;;;;;;5038900;28;20206;-81
2021/03/13 05:41:21;;;;;;;1.43;0.97;;;6.90;52.90;;;;;;5028709;28;20268;-81
2021/03/13 05:43:48;;;;;;;2.37;0.97;;;6.90;53.10;;;;;;5001008;28;20247;-81
2021/03/13 05:49:39;;;;;;;1.37;0.90;;;6.80;52.80;;;;;;5056476;28;20239;-83
2021/03/13 05:52:07;;;;;;;2.50;0.93;;;6.90;52.80;;;;;;5056597;28;20226;-81
2021/03/13 05:54:34;;;;;;;2.00;0.80;;;6.90;53.90;;;;;;5056639;28;20194;-81
2021/03/13 05:57:01;;;;;;;3.70;0.83;;;7.00;52.30;;;;;;5056613;28;20601;-81
2021/03/13 05:59:28;;;;;;;2.00;0.73;;;7.00;52.30;;;;;;5047699;28;20201;-81
2021/03/13 06:01:55;;;;;;;1.23;0.80;;;7.00;52.50;;;;;;5036813;28;20333;-81
2021/03/13 06:04:21;;;;;;;3.50;1.00;;;7.10;52.00;;;;;;5036837;28;20711;-81
2021/03/13 06:06:51;;;;;;;1.40;0.70;;;7.10;51.30;;;;;;5036346;28;20638;-81
2021/03/13 06:12:41;;;;;;;2.27;0.90;;;7.10;51.60;;;;;;5054488;28;20224;-82
2021/03/13 06:18:52;;;;;;;2.43;0.80;;;7.20;50.90;;;;;;5036046;28;20322;-82
2021/03/13 06:21:22;;;;;;;2.13;1.00;;;7.30;50.50;;;;;;5035413;28;20315;-83
2021/03/13 06:27:10;;;;;;;1.60;0.63;;;7.40;49.50;;;;;;5035876;28;20317;-82
2021/03/13 06:29:37;;;;;;;2.50;0.73;;;7.40;50.50;;;;;;5036483;28;20735;-82
2021/03/13 06:32:05;;;;;;;1.87;0.70;;;7.40;50.20;;;;;;5034960;28;20249;-84
2021/03/13 06:37:54;;;;;;;1.33;0.60;;;7.70;48.90;;;;;;5035264;28;20276;-84
2021/03/13 06:40:29;;;;;;;2.40;0.83;;;7.90;48.30;;;;;;5035398;28;20622;-83
2021/03/13 06:42:56;;;;;;;0.60;0.60;;;7.90;47.90;;;;;;5035736;28;20259;-83
2021/03/13 06:45:23;;;;;;;0.73;0.60;;;8.00;46.70;;;;;;5036563;28;20187;-83
2021/03/13 06:47:51;;;;;;;1.67;0.80;;;8.20;46.90;;;;;;5050509;28;20695;-82
2021/03/13 06:50:18;;;;;;;1.37;0.60;;;8.10;46.80;;;;;;5055304;28;20653;-84
2021/03/13 06:56:08;;;;;;;0.87;0.67;;;8.20;46.90;;;;;;5036294;28;20225;-83
2021/03/13 07:02:00;;;;;;;2.23;0.60;;;8.20;46.90;;;;;;5041364;28;20275;-84
2021/03/13 07:04:31;;;;;;;0.60;0.60;;;8.20;46.90;;;;;;5054999;28;20839;-83
2021/03/13 07:07:42;;;;;;;1.20;0.60;;;8.20;46.90;;;;;;5045748;28;20314;-84
2021/03/13 07:10:09;;;;;;;1.60;0.60;;;8.30;46.90;;;;;;5034926;28;20248;-83
2021/03/13 07:12:39;;;;;;;1.10;0.83;;;8.30;46.90;;;;;;5036012;28;20226;-83
2021/03/13 07:15:17;;;;;;;0.93;0.80;;;8.50;47.10;;;;;;5036702;28;20653;-83
2021/03/13 07:17:49;;;;;;;0.90;0.70;;;8.50;47.10;;;;;;5037706;28;20260;-83
2021/03/13 07:20:16;;;;;;;1.57;0.80;;;8.70;47.30;;;;;;5039247;28;20647;-83
2021/03/13 07:22:44;;;;;;;0.97;0.77;;;9.00;45.40;;;;;;5039180;28;20268;-83
2021/03/13 07:25:13;;;;;;;1.45;1.00;;;9.10;45.60;;;;;;5039433;28;20198;-83
2021/03/13 07:27:41;;;;;;;1.75;0.70;;;9.20;45.90;;;;;;5039079;28;20241;-83
2021/03/13 07:30:38;;;;;;;2.45;1.00;;;9.20;44.80;;;;;;5040857;28;20217;-83
2021/03/13 07:33:11;;;;;;;1.17;0.80;;;9.30;43.30;;;;;;5040522;28;20273;-83
2021/03/13 07:35:38;;;;;;;1.08;0.70;;;9.30;44.40;;;;;;5041486;28;20566;-83
2021/03/13 07:38:10;;;;;;;1.48;0.80;;;9.30;43.80;;;;;;5041718;28;20228;-83
2021/03/13 07:40:40;;;;;;;1.33;0.55;;;9.50;43.70;;;;;;5040383;28;20194;-86
2021/03/13 07:43:53;;;;;;;1.75;0.73;;;9.50;43.00;;;;;;5034905;28;20226;-85
2021/03/13 08:03:40;;;;;;;1.20;0.88;;;10.00;39.70;;;;;;5054519;28;20197;-88
2021/03/13 08:06:10;;;;;;;0.77;0.65;;;9.90;42.50;;;;;;5047492;28;20198;-88
2021/03/13 08:08:39;;;;;;;1.10;0.70;;;10.10;39.60;;;;;;5057766;28;20221;-88
2021/03/13 08:11:06;;;;;;;1.73;0.90;;;10.20;40.60;;;;;;5028276;28;20199;-91
2021/03/13 08:13:52;;;;;;;2.33;0.90;;;10.20;40.90;;;;;;5045647;28;20214;-90
2021/03/13 08:17:06;;;;;;;1.05;0.70;;;10.00;40.10;;;;;;5038368;28;20491;-89
2021/03/13 08:19:37;;;;;;;0.93;0.93;;;9.90;42.10;;;;;;5042042;28;20652;-89
2021/03/13 08:22:17;;;;;;;6.22;1.10;;;9.90;41.60;;;;;;5044707;28;20332;-91
2021/03/13 08:24:53;;;;;;;2.15;0.85;;;10.00;39.70;;;;;;5041769;28;20210;-90
2021/03/13 08:27:38;;;;;;;3.45;0.90;;;10.00;40.10;;;;;;5058546;28;20225;-89
2021/03/13 08:30:18;;;;;;;1.15;0.98;;;10.00;39.90;;;;;;5043081;28;20206;-87
2021/03/13 08:33:06;;;;;;;3.00;1.35;;;10.20;40.00;;;;;;5057876;28;20222;-85
2021/03/13 08:35:46;;;;;;;0.95;0.90;;;10.20;40.30;;;;;;5055993;28;20520;-85
2021/03/13 08:38:15;;;;;;;1.40;1.10;;;10.20;38.90;;;;;;5042831;28;20226;-85
2021/03/13 08:40:44;;;;;;;1.63;0.85;;;10.10;39.30;;;;;;5045434;28;20260;-87
2021/03/13 08:43:41;;;;;;;1.20;1.10;;;10.00;39.60;;;;;;5032757;28;20213;-90
2021/03/13 08:46:49;;;;;;;3.40;1.20;;;10.00;38.80;;;;;;5055719;28;20194;-88
2021/03/13 08:49:48;;;;;;;1.73;1.15;;;10.10;38.60;;;;;;5016688;28;20572;-86
2021/03/13 08:52:25;;;;;;;0.80;0.80;;;10.10;39.30;;;;;;5034069;28;20590;-86
2021/03/13 08:54:54;;;;;;;1.48;1.02;;;10.10;38.60;;;;;;5060486;28;20651;-88
2021/03/13 08:57:44;;;;;;;1.40;0.95;;;10.10;39.10;;;;;;5050187;28;20202;-85
2021/03/13 09:00:16;;;;;;;1.90;1.15;;;10.10;39.30;;;;;;5042219;28;20213;-86
2021/03/13 09:02:50;;;;;;;1.92;0.80;;;9.90;41.50;;;;;;5049040;28;20225;-84
2021/03/13 09:05:21;;;;;;;2.45;1.00;;;10.00;38.20;;;;;;5056558;28;20672;-85
2021/03/13 09:08:19;;;;;;;0.73;0.65;;;10.00;40.10;;;;;;5050302;28;20745;-88
2021/03/13 09:11:11;;;;;;;1.40;0.68;;;10.10;39.30;;;;;;5059262;28;20233;-86
2021/03/13 09:14:01;;;;;;;0.77;0.77;;;10.20;38.30;;;;;;5056442;28;20210;-86
2021/03/13 09:16:27;;;;;;;1.02;0.98;;;10.30;38.00;;;;;;5063737;28;20281;-88
2021/03/13 09:18:55;;;;;;;1.10;1.00;;;10.40;37.80;;;;;;5051144;28;20297;-87
2021/03/13 09:21:40;;;;;;;2.70;1.50;;;10.50;38.10;;;;;;5068861;28;20198;-87
2021/03/13 09:24:10;;;;;;;2.55;1.05;;;10.60;37.10;;;;;;5040193;28;20220;-86
2021/03/13 09:26:37;;;;;;;1.80;1.02;;;10.60;37.80;;;;;;5051721;28;20226;-86
2021/03/13 09:29:10;;;;;;;1.70;1.05;;;10.70;37.60;;;;;;5050754;28;20224;-88
2021/03/13 09:31:36;;;;;;;1.35;0.90;;;10.80;36.80;;;;;;5022616;28;20295;-86
2021/03/13 09:34:32;;;;;;;1.00;0.70;;;10.80;36.70;;;;;;4990240;28;20277;-87
2021/03/13 09:36:59;;;;;;;0.75;0.70;;;10.80;36.30;;;;;;5055629;28;20240;-87
2021/03/13 09:42:53;;;;;;;0.88;0.73;;;10.90;36.80;;;;;;5059798;28;20679;-87
2021/03/13 09:45:48;;;;;;;2.58;1.02;;;11.20;36.10;;;;;;5065375;28;20190;-87
2021/03/13 09:48:16;;;;;;;3.25;1.08;;;11.30;34.70;;;;;;5061141;28;20278;-86
2021/03/13 09:51:09;;;;;;;0.98;0.85;;;11.40;35.40;;;;;;5065755;28;20198;-87
2021/03/13 09:54:22;;;;;;;3.05;0.90;;;11.40;34.90;;;;;;5041826;28;20260;-87
2021/03/13 09:56:49;;;;;;;1.67;1.10;;;11.50;34.60;;;;;;5054003;28;20262;-85
2021/03/13 09:59:43;;;;;;;1.48;0.70;;;11.80;32.90;;;;;;5057559;28;20209;-87
2021/03/13 10:02:10;;;;;;;1.08;0.60;;;12.10;32.10;;;;;;5068965;28;20229;-89
2021/03/13 10:04:37;;;;;;;1.50;0.93;;;12.20;31.50;;;;;;5067795;28;20219;-86
2021/03/13 10:07:10;;;;;;;1.20;0.80;;;12.20;32.00;;;;;;5056386;28;20214;-87
2021/03/13 10:09:51;;;;;;;2.40;0.80;;;12.10;31.80;;;;;;5054571;28;20218;-89
2021/03/13 10:12:25;;;;;;;1.85;0.82;;;12.00;32.30;;;;;;5063640;28;20305;-88
2021/03/13 10:14:53;;;;;;;4.80;0.90;;;12.20;33.30;;;;;;5069127;28;20225;-87
2021/03/13 10:17:20;;;;;;;0.80;0.70;;;12.30;32.60;;;;;;5065696;28;20248;-88
2021/03/13 10:19:48;;;;;;;1.80;0.70;;;12.40;32.30;;;;;;5069276;28;20213;-86
2021/03/13 10:22:19;;;;;;;0.88;0.77;;;12.30;31.60;;;;;;5064214;28;20253;-87
2021/03/13 10:25:08;;;;;;;1.77;1.00;;;12.10;31.40;;;;;;5059026;28;20205;-87
2021/03/13 10:27:35;;;;;;;3.00;1.00;;;11.90;32.40;;;;;;5053085;28;20231;-88
2021/03/13 10:30:26;;;;;;;2.92;0.80;;;11.90;32.70;;;;;;5062269;28;20272;-87
2021/03/13 10:33:00;;;;;;;2.58;1.00;;;12.10;31.60;;;;;;5056997;28;20781;-86
2021/03/13 10:35:28;;;;;;;1.02;0.80;;;12.10;32.20;;;;;;5046895;28;20198;-90
2021/03/13 10:41:22;;;;;;;2.08;1.25;;;12.10;32.30;;;;;;5061238;28;20659;-89
2021/03/13 10:43:51;;;;;;;2.05;0.73;;;12.30;32.40;;;;;;5051736;28;20216;-91
2021/03/13 10:46:19;;;;;;;2.00;1.10;;;12.40;32.50;;;;;;5061781;28;20205;-91
2021/03/13 10:49:29;;;;;;;2.22;1.08;;;12.60;32.30;;;;;;5060698;28;20217;-90
2021/03/13 10:51:56;;;;;;;2.42;1.00;;;12.60;32.30;;;;;;5059448;28;20272;-89
2021/03/13 10:54:25;;;;;;;2.60;1.05;;;12.70;32.40;;;;;;5062628;28;20225;-90
2021/03/13 10:56:52;;;;;;;2.05;1.00;;;12.70;33.50;;;;;;5054215;28;20264;-88
2021/03/13 10:59:30;;;;;;;4.07;1.13;;;12.70;31.90;;;;;;5065401;28;20468;-90
2021/03/13 11:01:57;;;;;;;1.80;0.82;;;12.70;30.80;;;;;;5056215;28;20240;-89
2021/03/13 11:04:24;;;;;;;1.95;0.90;;;12.60;31.90;;;;;;5050688;28;20288;-88
2021/03/13 11:07:34;;;;;;;2.75;1.00;;;12.50;32.10;;;;;;5060379;28;20233;-89
2021/03/13 11:10:01;;;;;;;1.48;0.90;;;12.50;31.40;;;;;;5043661;28;20253;-93
2021/03/13 11:12:27;;;;;;;0.95;0.80;;;12.50;32.80;;;;;;5041689;28;20252;-92
2021/03/13 11:18:25;;;;;;;2.00;1.00;;;12.60;32.60;;;;;;5059664;28;20216;-89
2021/03/13 11:21:12;;;;;;;1.15;0.80;;;12.80;32.00;;;;;;5065011;28;20208;-90
2021/03/13 11:24:33;;;;;;;1.58;1.00;;;13.00;33.20;;;;;;5058366;28;20259;-88
2021/03/13 11:31:12;;;;;;;1.75;1.10;;;13.30;30.60;;;;;;5044218;28;20213;-90
2021/03/13 11:40:23;;;;;;;2.25;1.50;;;14.00;31.60;;;;;;4965183;28;20200;-88
2021/03/13 11:42:51;;;;;;;1.15;0.80;;;13.90;31.20;;;;;;4974546;28;20246;-87
2021/03/13 11:45:19;;;;;;;2.85;1.00;;;14.00;31.40;;;;;;5041683;28;20187;-88
2021/03/13 11:47:48;;;;;;;0.98;0.80;;;14.20;30.90;;;;;;5042061;28;20232;-89
2021/03/13 11:57:29;;;;;;;1.27;1.02;;;14.40;27.40;;;;;;5045725;28;20190;-90
2021/03/13 11:59:58;;;;;;;2.85;1.10;;;14.40;28.70;;;;;;5042938;28;20189;-90
2021/03/13 12:05:51;;;;;;;1.90;1.15;;;14.70;27.60;;;;;;5044051;28;20201;-89
2021/03/13 12:08:18;;;;;;;2.97;1.10;;;14.70;27.60;;;;;;5058669;28;20332;-88
2021/03/13 12:10:44;;;;;;;1.65;1.00;;;14.60;27.80;;;;;;5057051;28;20719;-88
2021/03/13 12:13:12;;;;;;;1.17;0.80;;;14.50;27.40;;;;;;5046556;28;20297;-88
2021/03/13 12:15:38;;;;;;;2.95;0.85;;;14.50;27.40;;;;;;5058739;28;20289;-87
2021/03/13 12:21:41;;;;;;;1.10;0.90;;;14.50;27.40;;;;;;5004783;28;20570;-87
2021/03/13 12:31:02;;;;;;;0.77;0.77;;;14.70;27.70;;;;;;5043650;28;20256;-88
2021/03/13 12:33:29;;;;;;;2.63;0.80;;;14.50;26.10;;;;;;5044367;28;20212;-90
2021/03/13 12:35:55;;;;;;;3.13;0.90;;;14.40;27.30;;;;;;5042364;28;20281;-88
2021/03/13 12:38:22;;;;;;;1.92;1.05;;;14.40;27.30;;;;;;5048697;28;20280;-88
2021/03/13 12:40:49;;;;;;;3.20;0.80;;;14.40;27.30;;;;;;5056975;28;20202;-88
2021/03/13 12:43:30;;;;;;;0.95;0.70;;;14.20;27.20;;;;;;5066282;28;20248;-88
2021/03/13 12:50:14;;;;;;;1.23;0.70;;;14.30;27.20;;;;;;5065190;28;20236;-89
2021/03/13 12:59:27;;;;;;;2.70;0.90;;;13.90;26.90;;;;;;5043091;28;20241;-87
2021/03/13 13:02:41;;;;;;;2.15;1.08;;;13.80;26.80;;;;;;5048571;28;20366;-88
2021/03/13 13:05:08;;;;;;;3.65;0.90;;;13.80;26.80;;;;;;5063539;28;20687;-88
2021/03/13 13:07:46;;;;;;;0.85;0.80;;;13.80;26.90;;;;;;5065921;28;20237;-88
2021/03/13 13:13:35;;;;;;;2.03;0.80;;;13.60;26.70;;;;;;4985989;28;20232;-88
2021/03/13 13:16:16;;;;;;;1.00;0.93;;;13.70;26.70;;;;;;5000824;28;20213;-89
2021/03/13 13:18:43;;;;;;;2.70;0.90;;;13.70;26.70;;;;;;5060610;28;20221;-88
2021/03/13 13:21:11;;;;;;;0.77;0.77;;;13.70;26.80;;;;;;5064626;28;20601;-88
2021/03/13 13:23:41;;;;;;;3.58;1.20;;;13.80;28.00;;;;;;5008738;22;20236;-88
2021/03/13 13:26:07;;;;;;;4.00;1.00;;;13.90;27.00;;;;;;4981437;28;20201;-87
2021/03/13 13:28:35;;;;;;;1.73;1.00;;;14.00;27.00;;;;;;4969232;28;20259;-88
2021/03/13 13:31:04;;;;;;;2.30;0.98;;;14.20;29.30;;;;;;4991814;28;20220;-88
2021/03/13 13:33:32;;;;;;;3.92;1.30;;;14.10;27.10;;;;;;4980558;28;20225;-89
2021/03/13 13:35:59;;;;;;;2.17;0.90;;;13.90;28.80;;;;;;5029473;28;20205;-88
2021/03/13 13:38:25;;;;;;;2.22;1.10;;;13.90;29.80;;;;;;5056663;28;20359;-89
2021/03/13 13:41:04;;;;;;;1.95;0.90;;;14.00;27.10;;;;;;4999415;28;20197;-88
2021/03/13 13:43:31;;;;;;;2.05;0.98;;;13.90;27.00;;;;;;4997978;28;20323;-88
2021/03/13 13:46:17;;;;;;;2.50;1.60;;;13.80;27.90;;;;;;4981850;28;20197;-92
2021/03/13 13:48:43;;;;;;;1.48;1.10;;;13.70;27.40;;;;;;4987063;28;20291;-90
2021/03/13 13:51:26;;;;;;;2.42;1.20;;;13.70;28.80;;;;;;5009166;28;20197;-91
2021/03/13 13:53:56;;;;;;;1.67;1.20;;;13.60;29.30;;;;;;4996833;28;20244;-90
2021/03/13 13:56:28;;;;;;;2.45;1.73;;;13.50;28.80;;;;;;4993451;28;20224;-90
2021/03/13 13:59:25;;;;;;;1.25;1.00;;;13.50;29.40;;;;;;4985780;28;20540;-90
2021/03/13 14:01:52;;;;;;;1.70;0.80;;;13.40;28.80;;;;;;5049209;28;20224;-93
2021/03/13 14:13:50;;;;;;;5.13;1.10;;;12.90;28.70;;;;;;5054707;28;20256;-91
2021/03/13 14:24:33;;;;;;;4.82;1.70;;;13.10;26.20;;;;;;5261381;23;20229;-95
2021/03/13 14:26:59;;;;;;;1.77;0.90;;;13.10;27.70;;;;;;5032421;28;20321;-94
2021/03/13 14:29:44;;;;;;;3.92;1.38;;;13.10;27.30;;;;;;5044830;28;20612;-94
2021/03/13 14:32:11;;;;;;;3.78;0.98;;;13.10;27.10;;;;;;5027681;28;20230;-94
2021/03/13 14:34:49;;;;;;;4.82;0.90;;;13.10;28.70;;;;;;5039286;28;20293;-92
2021/03/13 14:37:16;;;;;;;3.30;1.63;;;13.10;30.40;;;;;;5021024;28;20233;-93
2021/03/13 14:39:53;;;;;;;7.07;1.30;;;13.10;27.60;;;;;;5043602;28;20222;-92
2021/03/13 14:42:22;;;;;;;3.83;1.02;;;13.00;28.00;;;;;;5017345;28;20198;-92
2021/03/13 14:45:00;;;;;;;1.92;1.17;;;13.00;28.00;;;;;;5027532;28;20207;-92
2021/03/13 14:47:27;;;;;;;5.35;1.33;;;13.10;28.10;;;;;;5037465;28;20246;-93
2021/03/13 14:50:16;;;;;;;1.00;0.80;;;13.10;28.20;;;;;;5045355;28;20217;-91
2021/03/13 15:02:45;;;;;;;3.42;1.25;;;13.00;28.90;;;;;;4906316;28;20284;-93
2021/03/13 15:08:39;;;;;;;2.08;1.08;;;12.80;29.40;;;;;;4990412;28;20224;-94
2021/03/13 15:20:05;;;;;;;1.75;1.02;;;12.40;31.50;;;;;;5014045;28;20233;-92
2021/03/13 15:22:31;;;;;;;3.05;1.08;;;12.40;31.50;;;;;;5024068;28;20526;-89
2021/03/13 15:24:58;;;;;;;1.13;0.93;;;12.30;31.70;;;;;;5010583;28;20205;-90
2021/03/13 15:32:52;;;;;;;4.38;1.23;;;12.20;32.30;;;;;;5023720;28;20237;-92
2021/03/13 15:35:20;;;;;;;4.90;2.17;;;12.20;32.00;;;;;;5024631;28;20269;-91
2021/03/13 15:37:47;;;;;;;3.67;1.30;;;12.30;31.60;;;;;;5014908;28;20225;-92
2021/03/13 15:40:16;;;;;;;3.58;1.58;;;12.20;31.70;;;;;;5024146;28;20290;-93
2021/03/13 15:43:06;;;;;;;4.22;1.13;;;12.20;31.70;;;;;;5025800;28;20558;-91
2021/03/13 15:45:33;;;;;;;1.50;1.13;;;12.10;32.20;;;;;;5029562;28;20294;-92
2021/03/13 15:48:01;;;;;;;7.53;1.45;;;12.10;31.90;;;;;;5028071;28;20544;-93
2021/03/13 15:50:31;;;;;;;6.18;1.23;;;12.10;32.00;;;;;;5025539;28;20219;-92